BIHE weather

Herðubreiðarlindir Airport
Herðubreiðarlindir, Eastern Region, Iceland

Public forecast

Using degrees Celsius for public forecast. Weather courtesy of forecast.io.

Closest aviation weather report (METAR) to Herðubreiðarlindir Airport

Closest report is Egilsstaðir Airport, 45.5 nm (84.2 km) E. Retrieved 2020/07/06 23:00 UTC (48 minutes ago):

BIEG 062300Z 35003KT CAVOK 06/02 Q1015

Closest aviation forecast (TAF) to Herðubreiðarlindir Airport

Closest forecast is Egilsstaðir Airport, 45.5 nm (84.2 km) E. Retrieved 2020/07/06 21:04 UTC (3 hours ago):

TAF BIEG 061959Z 0621/0721 01010KT 9999 SCT035 BKN045 TX15/0715Z TN04/0705Z BECMG 0622/0700 20005KT FEW040 BECMG 0709/0711 01010KT BKN040